SBNT

Augusto Severo Airport

Natal, Brazil
TAF SBNT 171530Z 1718/1818 11014KT 9999 SCT023 TN24/1808Z TX31/1815Z BECMG 1723/1801 13007KT BECMG 1810/1812 12015KT BKN022 BECMG 1815/1817 SCT030 RMK PEA
Issued Valid From Valid To
Nov-17 @ 15:30 UTC
(6 hours ago)
Nov-17 @ 18:00 UTC
(4 hours ago)
Nov-18 @ 18:00 UTC
(in 20 hours)
Nov-17 @ 18:00 to Nov-17 @ 23:00
TAF SBNT 171530Z 1718/1818 11014KT 9999 SCT023 TN24/1808Z TX31/1815Z
Wind Visibility Clouds
110° at 14 knots 10,000+ meters
  • Scattered at 2,300' AGL
Becoming Nov-17 @ 23:00 to Nov-18 @ 10:00
BECMG 1723/1801 13007KT
Wind Visibility Clouds
130° at 7 knots 10,000+ meters
  • Scattered at 2,300' AGL
Becoming Nov-18 @ 10:00 to Nov-18 @ 15:00
BECMG 1810/1812 12015KT BKN022
Wind Visibility Clouds
120° at 15 knots 10,000+ meters
  • Broken at 2,200' AGL
Becoming Nov-18 @ 15:00 to Nov-18 @ 18:00
BECMG 1815/1817 SCT030 RMK PEA
Wind Visibility Clouds
120° at 15 knots 10,000+ meters
  • Scattered at 3,000' AGL
TAF SBNT 171530Z 1718/1818 11014KT 9999 SCT023 TN24/1808Z TX31/1815Z BECMG 1723/1801 13007KT BECMG 1810/1812 12015KT BKN022 BECMG 1815/1817 SCT030 RMK PEA
Issued Nov-17 @ 15:30 UTC
(6 hours ago)
Valid From Nov-17 @ 18:00 UTC
(4 hours ago)
Valid To Nov-18 @ 18:00 UTC
(in 20 hours)
Nov-17 @ 18:00 - Nov-17 @ 23:00
Wind Visibility
110° at 14 knots 10,000+ meters
Clouds
  • Scattered at 2,300' AGL
Becoming Nov-17 @ 23:00 - Nov-18 @ 10:00
Wind Visibility
130° at 7 knots 10,000+ meters
Clouds
  • Scattered at 2,300' AGL
Becoming Nov-18 @ 10:00 - Nov-18 @ 15:00
Wind Visibility
120° at 15 knots 10,000+ meters
Clouds
  • Broken at 2,200' AGL
Becoming Nov-18 @ 15:00 - Nov-18 @ 18:00
Wind Visibility
120° at 15 knots 10,000+ meters
Clouds
  • Scattered at 3,000' AGL